createdAt,value
2018-07-13T00:00:18.814Z,18.52
2018-07-13T00:01:18.809Z,18.46
2018-07-13T00:02:18.688Z,18.43
2018-07-13T00:03:18.685Z,18.43
2018-07-13T00:04:18.690Z,18.37
2018-07-13T00:05:18.565Z,18.39
2018-07-13T00:06:18.565Z,18.43
2018-07-13T00:07:18.523Z,18.37
2018-07-13T00:08:18.448Z,18.46
2018-07-13T00:09:18.451Z,18.34
2018-07-13T00:10:18.323Z,18.43
2018-07-13T00:11:18.324Z,18.43
2018-07-13T00:12:18.322Z,18.33
2018-07-13T00:13:18.203Z,18.33
2018-07-13T00:14:18.209Z,18.41
2018-07-13T00:15:18.200Z,18.37
2018-07-13T00:16:18.085Z,18.39
2018-07-13T00:17:18.082Z,18.37
2018-07-13T00:18:18.083Z,18.34
2018-07-13T00:19:17.959Z,18.39
2018-07-13T00:20:17.963Z,18.36
2018-07-13T00:21:17.964Z,18.36
2018-07-13T00:22:17.841Z,18.34
2018-07-13T00:23:17.842Z,18.36
2018-07-13T00:24:17.846Z,18.30
2018-07-13T00:25:17.719Z,18.30
2018-07-13T00:26:17.717Z,18.26
2018-07-13T00:27:17.719Z,18.27
2018-07-13T00:28:17.602Z,18.24
2018-07-13T00:29:17.599Z,18.28
2018-07-13T00:30:17.601Z,18.23
2018-07-13T00:31:17.479Z,18.18
2018-07-13T00:32:17.477Z,18.23
2018-07-13T00:33:17.480Z,18.19
2018-07-13T00:34:17.361Z,18.12
2018-07-13T00:35:17.357Z,18.09
2018-07-13T00:36:17.360Z,18.03
2018-07-13T00:37:17.241Z,18.09
2018-07-13T00:38:17.240Z,18.08
2018-07-13T00:39:17.234Z,18.11
2018-07-13T00:40:17.117Z,18.02
2018-07-13T00:41:17.116Z,18.09
2018-07-13T00:42:17.114Z,18.08
2018-07-13T00:43:16.994Z,18.03
2018-07-13T00:44:16.995Z,18.02
2018-07-13T00:45:16.952Z,18.02
2018-07-13T00:46:16.877Z,17.97
2018-07-13T00:47:16.876Z,17.93
2018-07-13T00:48:16.833Z,17.90
2018-07-13T00:49:16.756Z,17.94
2018-07-13T00:50:16.755Z,17.94
2018-07-13T00:51:16.634Z,17.88
2018-07-13T00:52:16.638Z,17.79
2018-07-13T00:53:16.648Z,17.82
2018-07-13T00:54:16.514Z,17.86
2018-07-13T00:55:16.515Z,17.84
2018-07-13T00:56:16.515Z,17.75
2018-07-13T00:57:16.393Z,17.80
2018-07-13T00:58:16.392Z,17.78
2018-07-13T00:59:16.392Z,17.75
2018-07-13T01:00:16.271Z,17.75
2018-07-13T01:01:16.269Z,17.73
2018-07-13T01:02:16.269Z,17.73
2018-07-13T01:03:16.165Z,17.72
2018-07-13T01:04:16.149Z,17.68
2018-07-13T01:05:16.228Z,17.66
2018-07-13T01:06:16.029Z,17.60
2018-07-13T01:07:16.035Z,17.66
2018-07-13T01:08:16.038Z,17.63
2018-07-13T01:09:15.914Z,17.66
2018-07-13T01:10:15.911Z,17.57
2018-07-13T01:11:15.907Z,17.59
2018-07-13T01:12:15.791Z,17.54
2018-07-13T01:13:15.787Z,17.57
2018-07-13T01:14:15.791Z,17.53
2018-07-13T01:15:15.668Z,17.56
2018-07-13T01:16:15.668Z,17.44
2018-07-13T01:17:15.628Z,17.42
2018-07-13T01:18:15.549Z,17.53
2018-07-13T01:19:15.549Z,17.49
2018-07-13T01:20:15.434Z,17.49
2018-07-13T01:21:15.427Z,17.49
2018-07-13T01:22:15.428Z,17.47
2018-07-13T01:23:15.309Z,17.37
2018-07-13T01:24:15.305Z,17.38
2018-07-13T01:25:15.306Z,17.27
2018-07-13T01:26:15.186Z,17.37
2018-07-13T01:27:15.187Z,17.30
2018-07-13T01:28:15.191Z,17.38
2018-07-13T01:29:15.069Z,17.32
2018-07-13T01:30:15.066Z,17.35
2018-07-13T01:31:15.069Z,17.28
2018-07-13T01:32:14.943Z,17.24
2018-07-13T01:33:14.943Z,17.22
2018-07-13T01:34:14.946Z,17.22
2018-07-13T01:35:14.825Z,17.23
2018-07-13T01:36:14.826Z,17.13
2018-07-13T01:37:14.828Z,17.09
2018-07-13T01:38:14.703Z,17.14
2018-07-13T01:39:14.706Z,17.10
2018-07-13T01:40:14.702Z,17.01
2018-07-13T01:41:14.590Z,17.01
2018-07-13T01:42:14.584Z,17.13
2018-07-13T01:43:14.540Z,17.09
2018-07-13T01:44:14.464Z,17.10
2018-07-13T01:45:14.460Z,16.92
2018-07-13T01:46:14.345Z,17.01
2018-07-13T01:47:14.344Z,16.99
2018-07-13T01:48:14.340Z,17.01
2018-07-13T01:49:14.221Z,16.99
2018-07-13T01:50:14.225Z,16.95
2018-07-13T01:51:14.221Z,16.91
2018-07-13T01:52:14.099Z,16.91
2018-07-13T01:53:14.098Z,16.86
2018-07-13T01:54:14.100Z,16.97
2018-07-13T01:55:13.979Z,16.84
2018-07-13T01:56:13.977Z,16.87
2018-07-13T01:57:13.979Z,16.79
2018-07-13T01:58:13.859Z,16.82
2018-07-13T01:59:13.858Z,16.86
2018-07-13T02:00:13.856Z,16.87
2018-07-13T02:01:13.740Z,16.86
2018-07-13T02:02:13.738Z,16.82
2018-07-13T02:03:13.735Z,16.68
2018-07-13T02:04:13.628Z,16.82
2018-07-13T02:05:13.616Z,16.74
2018-07-13T02:06:13.573Z,16.74
2018-07-13T02:07:13.495Z,16.69
2018-07-13T02:08:13.496Z,16.66
2018-07-13T02:09:13.379Z,16.66
2018-07-13T02:10:13.374Z,16.55
2018-07-13T02:11:13.378Z,16.55
2018-07-13T02:12:13.254Z,16.59
2018-07-13T02:13:13.255Z,16.55
2018-07-13T02:14:13.256Z,16.51
2018-07-13T02:15:13.134Z,16.55
2018-07-13T02:16:13.134Z,16.51
2018-07-13T02:17:13.138Z,16.57
2018-07-13T02:18:13.027Z,16.55
2018-07-13T02:19:13.012Z,16.58
2018-07-13T02:20:13.016Z,16.49
2018-07-13T02:21:12.894Z,16.40
2018-07-13T02:22:12.893Z,16.43
2018-07-13T02:23:12.893Z,16.40
2018-07-13T02:24:12.774Z,16.37
2018-07-13T02:25:12.774Z,16.28
2018-07-13T02:26:12.773Z,16.32
2018-07-13T02:27:12.653Z,16.34
2018-07-13T02:28:12.653Z,16.36
2018-07-13T02:29:12.608Z,16.31
2018-07-13T02:30:12.530Z,16.26
2018-07-13T02:31:12.531Z,16.37
2018-07-13T02:32:12.410Z,16.29
2018-07-13T02:33:12.418Z,16.25
2018-07-13T02:34:12.415Z,16.25
2018-07-13T02:35:12.289Z,16.28
2018-07-13T02:36:12.287Z,16.24
2018-07-13T02:37:12.290Z,16.31
2018-07-13T02:38:12.175Z,16.24
2018-07-13T02:39:12.254Z,16.24
2018-07-13T02:40:12.187Z,16.13
2018-07-13T02:41:12.049Z,16.12
2018-07-13T02:42:12.047Z,16.17
2018-07-13T02:43:12.050Z,16.17
2018-07-13T02:44:11.927Z,16.22
2018-07-13T02:45:11.929Z,16.17
2018-07-13T02:46:11.936Z,16.22
2018-07-13T02:47:11.805Z,16.06
2018-07-13T02:48:11.808Z,16.22
2018-07-13T02:49:11.764Z,16.18
2018-07-13T02:50:11.689Z,16.16
2018-07-13T02:51:11.689Z,16.16
2018-07-13T02:52:11.567Z,16.16
2018-07-13T02:53:11.567Z,16.08
2018-07-13T02:54:11.564Z,16.13
2018-07-13T02:55:11.444Z,16.12
2018-07-13T02:56:11.449Z,16.03
2018-07-13T02:57:11.447Z,16.12
2018-07-13T02:58:11.323Z,16.06
2018-07-13T02:59:11.327Z,16.06
2018-07-13T03:00:11.326Z,15.96
2018-07-13T03:01:11.210Z,15.99
2018-07-13T03:02:11.206Z,16.05
2018-07-13T03:03:11.207Z,15.96
2018-07-13T03:04:11.083Z,15.94
2018-07-13T03:05:11.082Z,15.91
2018-07-13T03:06:11.084Z,15.90
2018-07-13T03:07:10.962Z,15.90
2018-07-13T03:08:10.962Z,15.96
2018-07-13T03:09:10.923Z,15.88
2018-07-13T03:10:10.841Z,15.85
2018-07-13T03:11:10.844Z,15.90
2018-07-13T03:12:10.729Z,15.83
2018-07-13T03:13:10.723Z,15.83
2018-07-13T03:14:10.723Z,15.84
2018-07-13T03:15:10.605Z,15.84
2018-07-13T03:16:10.602Z,15.76
2018-07-13T03:17:10.599Z,15.80
2018-07-13T03:18:10.484Z,15.78
2018-07-13T03:19:10.481Z,15.72
2018-07-13T03:20:10.483Z,15.76
2018-07-13T03:21:10.361Z,15.70
2018-07-13T03:22:10.365Z,15.78
2018-07-13T03:23:10.358Z,15.69
2018-07-13T03:24:10.239Z,15.73
2018-07-13T03:25:10.243Z,15.76
2018-07-13T03:26:10.243Z,15.72
2018-07-13T03:27:10.127Z,15.66
2018-07-13T03:28:10.120Z,15.72
2018-07-13T03:29:09.997Z,15.66
2018-07-13T03:30:10.003Z,15.67
2018-07-13T03:31:09.998Z,15.69
2018-07-13T03:32:09.881Z,15.67
2018-07-13T03:33:09.876Z,15.60
2018-07-13T03:34:09.878Z,15.60
2018-07-13T03:35:09.761Z,15.55
2018-07-13T03:36:09.755Z,15.72
2018-07-13T03:37:09.755Z,15.55
2018-07-13T03:38:09.676Z,15.54
2018-07-13T03:39:09.690Z,15.60
2018-07-13T03:40:09.635Z,15.62
2018-07-13T03:41:09.517Z,15.62
2018-07-13T03:42:09.515Z,15.57
2018-07-13T03:43:09.516Z,15.62
2018-07-13T03:44:09.409Z,15.57
2018-07-13T03:45:09.393Z,15.59
2018-07-13T03:46:09.277Z,15.55
2018-07-13T03:47:09.273Z,15.57
2018-07-13T03:48:09.272Z,15.66
2018-07-13T03:49:09.153Z,15.52
2018-07-13T03:50:09.154Z,15.57
2018-07-13T03:51:09.153Z,15.60
2018-07-13T03:52:09.032Z,15.57
2018-07-13T03:53:09.036Z,15.62
2018-07-13T03:54:09.092Z,15.55
2018-07-13T03:55:08.913Z,15.52
2018-07-13T03:56:08.912Z,15.65
2018-07-13T03:57:08.911Z,15.51
2018-07-13T03:58:08.790Z,15.54
2018-07-13T03:59:08.791Z,15.62
2018-07-13T04:00:08.793Z,15.63
2018-07-13T04:01:08.675Z,15.60
2018-07-13T04:02:08.672Z,15.54
2018-07-13T04:03:08.628Z,15.59
2018-07-13T04:04:08.551Z,15.55
2018-07-13T04:05:08.556Z,15.47
2018-07-13T04:06:08.431Z,15.48
2018-07-13T04:07:08.465Z,15.54
2018-07-13T04:08:08.429Z,15.51
2018-07-13T04:09:08.308Z,15.51
2018-07-13T04:10:08.311Z,15.54
2018-07-13T04:11:08.313Z,15.62
2018-07-13T04:12:08.191Z,15.50
2018-07-13T04:13:08.191Z,15.50
2018-07-13T04:14:08.186Z,15.54
2018-07-13T04:15:08.071Z,15.55
2018-07-13T04:16:08.070Z,15.65
2018-07-13T04:17:08.076Z,15.51
2018-07-13T04:18:07.947Z,15.60
2018-07-13T04:19:07.954Z,15.57
2018-07-13T04:20:07.904Z,15.60
2018-07-13T04:21:07.829Z,15.59
2018-07-13T04:22:07.824Z,15.60
2018-07-13T04:23:07.707Z,15.55
2018-07-13T04:24:07.705Z,15.60
2018-07-13T04:25:07.706Z,15.59
2018-07-13T04:26:07.584Z,15.59
2018-07-13T04:27:07.585Z,15.57
2018-07-13T04:28:07.586Z,15.52
2018-07-13T04:29:07.463Z,15.52
2018-07-13T04:30:07.473Z,15.55
2018-07-13T04:31:07.463Z,15.54
2018-07-13T04:32:07.348Z,15.54
2018-07-13T04:33:07.345Z,15.60
2018-07-13T04:34:07.386Z,15.63
2018-07-13T04:35:07.224Z,15.62
2018-07-13T04:36:07.223Z,15.57
2018-07-13T04:37:07.182Z,15.63
2018-07-13T04:38:07.102Z,15.57
2018-07-13T04:39:07.105Z,15.55
2018-07-13T04:40:06.982Z,15.66
2018-07-13T04:41:07.043Z,15.72
2018-07-13T04:42:06.983Z,15.67
2018-07-13T04:43:06.860Z,15.67
2018-07-13T04:44:06.865Z,15.72
2018-07-13T04:45:06.860Z,15.75
2018-07-13T04:46:06.739Z,15.75
2018-07-13T04:47:06.741Z,15.70
2018-07-13T04:48:06.741Z,15.73
2018-07-13T04:49:06.627Z,15.69
2018-07-13T04:50:06.632Z,15.78
2018-07-13T04:51:06.619Z,15.81
2018-07-13T04:52:06.502Z,15.81
2018-07-13T04:53:06.499Z,15.81
2018-07-13T04:54:06.502Z,15.87
2018-07-13T04:55:06.382Z,15.81
2018-07-13T04:56:06.379Z,15.88
2018-07-13T04:57:06.264Z,15.88
2018-07-13T04:58:06.258Z,15.92
2018-07-13T04:59:06.256Z,15.91
2018-07-13T05:00:06.144Z,15.91
2018-07-13T05:01:06.147Z,15.94
2018-07-13T05:02:06.134Z,15.90
2018-07-13T05:03:06.017Z,15.98
2018-07-13T05:04:06.015Z,16.05
2018-07-13T05:05:06.033Z,16.03
2018-07-13T05:06:05.919Z,16.06
2018-07-13T05:07:05.898Z,16.10
2018-07-13T05:08:05.895Z,16.09
2018-07-13T05:09:05.779Z,16.05
2018-07-13T05:10:05.776Z,16.16
2018-07-13T05:11:05.776Z,16.25
2018-07-13T05:12:05.655Z,16.18
2018-07-13T05:13:05.657Z,16.16
2018-07-13T05:14:05.615Z,16.21
2018-07-13T05:15:05.546Z,16.32
2018-07-13T05:16:05.534Z,16.29
2018-07-13T05:17:05.413Z,16.29
2018-07-13T05:18:05.416Z,16.31
2018-07-13T05:19:05.413Z,16.34
2018-07-13T05:20:05.295Z,16.24
2018-07-13T05:21:05.295Z,16.39
2018-07-13T05:22:05.294Z,16.40
2018-07-13T05:23:05.175Z,16.40
2018-07-13T05:24:05.171Z,16.47
2018-07-13T05:25:05.174Z,16.47
2018-07-13T05:26:05.055Z,16.51
2018-07-13T05:27:05.052Z,16.54
2018-07-13T05:28:05.052Z,16.50
2018-07-13T05:29:04.929Z,16.57
2018-07-13T05:30:04.934Z,16.62
2018-07-13T05:31:04.959Z,16.64
2018-07-13T05:32:04.815Z,16.72
2018-07-13T05:33:04.810Z,16.83
2018-07-13T05:34:04.767Z,16.76
2018-07-13T05:35:04.693Z,16.83
2018-07-13T05:36:04.693Z,16.82
2018-07-13T05:37:04.575Z,16.86
2018-07-13T05:38:04.575Z,16.86
2018-07-13T05:39:04.568Z,16.84
2018-07-13T05:40:04.450Z,16.86
2018-07-13T05:41:04.451Z,16.87
2018-07-13T05:42:04.450Z,16.89
2018-07-13T05:43:04.329Z,16.95
2018-07-13T05:44:04.326Z,17.05
2018-07-13T05:45:04.327Z,17.05
2018-07-13T05:46:04.208Z,17.01
2018-07-13T05:47:04.210Z,17.14
2018-07-13T05:48:04.208Z,17.14
2018-07-13T05:49:04.085Z,17.24
2018-07-13T05:50:04.086Z,17.30
2018-07-13T05:51:04.088Z,17.34
2018-07-13T05:52:03.973Z,17.31
2018-07-13T05:53:03.965Z,17.27
2018-07-13T05:54:03.967Z,17.30
2018-07-13T05:55:03.845Z,17.38
2018-07-13T05:56:03.844Z,17.47
2018-07-13T05:57:03.802Z,17.52
2018-07-13T05:58:03.725Z,17.41
2018-07-13T05:59:03.727Z,17.50
2018-07-13T06:00:03.608Z,17.44
2018-07-13T06:01:03.606Z,17.46
2018-07-13T06:02:03.605Z,17.53
2018-07-13T06:03:03.487Z,17.56
2018-07-13T06:04:03.548Z,17.56
2018-07-13T06:05:03.483Z,17.57
2018-07-13T06:06:03.364Z,17.65
2018-07-13T06:07:03.364Z,17.69
2018-07-13T06:08:03.361Z,17.66
2018-07-13T06:09:03.320Z,17.69
2018-07-13T06:10:03.248Z,17.75
2018-07-13T06:11:03.247Z,17.80
2018-07-13T06:12:03.123Z,17.79
2018-07-13T06:13:03.125Z,17.79
2018-07-13T06:14:03.122Z,17.84
2018-07-13T06:15:03.046Z,17.86
2018-07-13T06:16:03.000Z,17.86
2018-07-13T06:17:03.009Z,17.87
2018-07-13T06:18:02.884Z,18.03
2018-07-13T06:19:02.881Z,18.03
2018-07-13T06:20:02.889Z,17.98
2018-07-13T06:21:02.763Z,18.02
2018-07-13T06:22:02.761Z,18.06
2018-07-13T06:23:02.762Z,18.09
2018-07-13T06:24:02.639Z,18.05
2018-07-13T06:25:02.643Z,18.03
2018-07-13T06:26:02.597Z,18.08
2018-07-13T06:27:02.527Z,18.13
2018-07-13T06:28:02.519Z,18.19
2018-07-13T06:29:02.398Z,18.21
2018-07-13T06:30:02.400Z,18.30
2018-07-13T06:31:02.403Z,18.28
2018-07-13T06:32:02.280Z,18.28
2018-07-13T06:33:02.278Z,18.39
2018-07-13T06:34:02.281Z,18.34
2018-07-13T06:35:02.163Z,18.46
2018-07-13T06:36:02.160Z,18.39
2018-07-13T06:37:02.155Z,18.39
2018-07-13T06:38:02.037Z,18.48
2018-07-13T06:39:02.039Z,18.45
2018-07-13T06:40:02.039Z,18.55
2018-07-13T06:41:01.915Z,18.60
2018-07-13T06:42:01.922Z,18.58
2018-07-13T06:43:01.917Z,18.58
2018-07-13T06:44:01.794Z,18.70
2018-07-13T06:45:01.796Z,18.64
2018-07-13T06:46:01.804Z,18.73
2018-07-13T06:47:01.681Z,18.76
2018-07-13T06:48:01.678Z,18.70
2018-07-13T06:49:01.677Z,18.81
2018-07-13T06:50:01.561Z,18.94
2018-07-13T06:51:01.557Z,18.81
2018-07-13T06:52:01.560Z,18.83
2018-07-13T06:53:01.433Z,18.88
2018-07-13T06:54:01.434Z,18.97
2018-07-13T06:55:01.431Z,18.98
2018-07-13T06:56:01.315Z,18.98
2018-07-13T06:57:01.314Z,19.11
2018-07-13T06:58:01.320Z,19.20
2018-07-13T06:59:01.193Z,19.16
2018-07-13T07:00:01.194Z,19.27
2018-07-13T07:01:01.197Z,19.27
2018-07-13T07:02:01.069Z,19.37
2018-07-13T07:03:01.077Z,19.37
2018-07-13T07:04:01.070Z,19.45
2018-07-13T07:05:00.950Z,19.52
2018-07-13T07:06:00.951Z,19.48
2018-07-13T07:07:00.945Z,19.52
2018-07-13T07:08:00.830Z,19.62
2018-07-13T07:09:00.832Z,19.67
2018-07-13T07:10:00.787Z,19.67
2018-07-13T07:11:00.713Z,19.77
2018-07-13T07:12:00.708Z,19.97
2018-07-13T07:13:00.591Z,19.93
2018-07-13T07:14:00.588Z,19.97
2018-07-13T07:15:00.587Z,20.10
2018-07-13T07:16:00.520Z,20.15
2018-07-13T07:17:00.466Z,20.11
2018-07-13T07:18:00.465Z,20.21
2018-07-13T07:19:00.349Z,20.26
2018-07-13T07:20:00.354Z,20.33
2018-07-13T07:21:00.346Z,20.34
2018-07-13T07:22:00.358Z,20.37
2018-07-13T07:23:00.234Z,20.44
2018-07-13T07:24:00.228Z,20.44
2018-07-13T07:25:00.108Z,20.48
2018-07-13T07:26:00.112Z,20.56
2018-07-13T07:27:00.108Z,20.50
2018-07-13T07:27:59.989Z,20.58
2018-07-13T07:28:59.990Z,20.58
2018-07-13T07:29:59.983Z,20.68
2018-07-13T07:30:59.939Z,20.73
2018-07-13T07:31:59.870Z,20.68
2018-07-13T07:32:59.877Z,20.75
2018-07-13T07:33:59.744Z,20.75
2018-07-13T07:34:59.741Z,20.75
2018-07-13T07:35:59.741Z,20.68
2018-07-13T07:36:59.624Z,20.73
2018-07-13T07:37:59.625Z,20.68
2018-07-13T07:38:59.625Z,20.74
2018-07-13T07:39:59.510Z,20.77
2018-07-13T07:40:59.502Z,20.80
2018-07-13T07:41:59.504Z,20.75
2018-07-13T07:42:59.458Z,20.90
2018-07-13T07:43:59.449Z,20.85
2018-07-13T07:44:59.380Z,20.90
2018-07-13T07:45:59.266Z,21.00
2018-07-13T07:46:59.263Z,21.00
2018-07-13T07:47:59.261Z,20.93
2018-07-13T07:48:59.138Z,21.03
2018-07-13T07:49:59.203Z,21.07
2018-07-13T07:50:59.141Z,21.11
2018-07-13T07:51:59.019Z,21.13
2018-07-13T07:52:59.019Z,21.11
2018-07-13T07:53:59.019Z,21.22
2018-07-13T07:54:58.900Z,21.26
2018-07-13T07:55:58.904Z,21.26
2018-07-13T07:56:58.897Z,21.29
2018-07-13T07:57:58.857Z,21.28
2018-07-13T07:58:58.782Z,21.29
2018-07-13T07:59:58.778Z,21.33
2018-07-13T08:00:58.660Z,21.37
2018-07-13T08:01:58.660Z,21.35
2018-07-13T08:02:58.656Z,21.38
2018-07-13T08:03:58.656Z,21.50
2018-07-13T08:04:58.560Z,21.51
2018-07-13T08:05:58.538Z,21.56
2018-07-13T08:06:59.111Z,21.66
2018-07-13T08:07:58.419Z,21.80
2018-07-13T08:08:58.418Z,21.85
2018-07-13T08:09:58.410Z,21.91
2018-07-13T08:10:58.292Z,22.04
2018-07-13T08:11:58.297Z,22.03
2018-07-13T08:12:58.303Z,22.08
2018-07-13T08:13:58.404Z,22.19
2018-07-13T08:14:58.173Z,22.26
2018-07-13T08:15:58.179Z,22.23
2018-07-13T08:16:58.053Z,22.38
2018-07-13T08:17:58.055Z,22.40
2018-07-13T08:18:58.053Z,22.58
2018-07-13T08:19:57.933Z,22.61
2018-07-13T08:20:57.935Z,22.61
2018-07-13T08:21:57.933Z,22.63
2018-07-13T08:22:57.811Z,22.81
2018-07-13T08:23:57.817Z,22.86
2018-07-13T08:24:57.813Z,22.96
2018-07-13T08:25:57.694Z,23.07
2018-07-13T08:26:57.691Z,23.13
2018-07-13T08:27:57.693Z,23.13
2018-07-13T08:28:57.573Z,23.28
2018-07-13T08:29:57.576Z,23.26
2018-07-13T08:30:57.569Z,23.29
2018-07-13T08:31:57.453Z,23.39
2018-07-13T08:32:57.452Z,23.48
2018-07-13T08:33:57.451Z,23.58
2018-07-13T08:34:57.326Z,23.66
2018-07-13T08:35:57.326Z,23.71
2018-07-13T08:36:57.326Z,23.70
2018-07-13T08:37:57.208Z,23.84
2018-07-13T08:38:57.214Z,23.85
2018-07-13T08:39:57.207Z,23.94
2018-07-13T08:40:57.092Z,24.01
2018-07-13T08:41:57.099Z,24.10
2018-07-13T08:42:57.088Z,24.14
2018-07-13T08:43:57.017Z,24.11
2018-07-13T08:44:56.969Z,24.21
2018-07-13T08:45:57.014Z,24.28
2018-07-13T08:46:56.922Z,24.31
2018-07-13T08:47:56.843Z,24.36
2018-07-13T08:48:56.847Z,24.36
2018-07-13T08:49:56.844Z,24.55
2018-07-13T08:50:56.722Z,24.65
2018-07-13T08:51:56.721Z,24.65
2018-07-13T08:52:56.724Z,24.71
2018-07-13T08:53:56.616Z,24.79
2018-07-13T08:54:56.830Z,24.85
2018-07-13T08:55:56.601Z,24.89
2018-07-13T08:56:56.483Z,24.99
2018-07-13T08:57:56.482Z,24.93
2018-07-13T08:58:56.491Z,24.92
2018-07-13T08:59:56.372Z,25.01
2018-07-13T09:00:56.360Z,25.11
2018-07-13T09:01:56.360Z,25.11
2018-07-13T09:02:56.246Z,25.14
2018-07-13T09:03:56.255Z,25.24
2018-07-13T09:04:56.242Z,25.33
2018-07-13T09:05:56.335Z,25.37
2018-07-13T09:06:56.120Z,25.49
2018-07-13T09:07:56.119Z,25.56
2018-07-13T09:08:56.119Z,25.49
2018-07-13T09:09:56.000Z,25.58
2018-07-13T09:10:56.000Z,25.68
2018-07-13T09:11:56.064Z,25.73
2018-07-13T09:12:55.884Z,25.78
2018-07-13T09:13:55.878Z,25.78
2018-07-13T09:14:55.877Z,25.91
2018-07-13T09:15:55.765Z,25.86
2018-07-13T09:16:55.757Z,25.89
2018-07-13T09:17:55.757Z,26.04
2018-07-13T09:18:55.639Z,26.07
2018-07-13T09:19:55.639Z,25.99
2018-07-13T09:20:55.636Z,26.22
2018-07-13T09:21:55.594Z,26.15
2018-07-13T09:22:55.517Z,26.15
2018-07-13T09:23:55.516Z,26.18
2018-07-13T09:24:55.519Z,26.18
2018-07-13T09:25:55.395Z,26.15
2018-07-13T09:26:55.396Z,26.18
2018-07-13T09:27:55.400Z,26.18
2018-07-13T09:28:55.274Z,26.30
2018-07-13T09:29:55.273Z,26.27
2018-07-13T09:30:55.276Z,26.36
2018-07-13T09:31:55.154Z,26.46
2018-07-13T09:32:55.156Z,26.42
2018-07-13T09:33:55.158Z,26.46
2018-07-13T09:34:55.038Z,26.48
2018-07-13T09:35:55.033Z,26.60
2018-07-13T09:36:55.039Z,26.53
2018-07-13T09:37:55.063Z,26.56
2018-07-13T09:38:54.912Z,26.61
2018-07-13T09:39:54.916Z,26.70
2018-07-13T09:40:54.914Z,26.73
2018-07-13T09:41:54.791Z,26.76
2018-07-13T09:42:54.793Z,26.74
2018-07-13T09:43:54.791Z,26.81
2018-07-13T09:44:54.670Z,26.86
2018-07-13T09:45:54.675Z,26.74
2018-07-13T09:46:54.853Z,26.85
2018-07-13T09:47:54.679Z,26.92
2018-07-13T09:48:54.552Z,26.91
2018-07-13T09:49:54.550Z,27.01
2018-07-13T09:50:54.555Z,26.98
2018-07-13T09:51:54.433Z,27.15
2018-07-13T09:52:54.429Z,27.18
2018-07-13T09:53:54.515Z,27.22
2018-07-13T09:54:54.336Z,27.23
2018-07-13T09:56:54.313Z,27.29
2018-07-13T09:57:54.190Z,27.35
2018-07-13T09:58:54.187Z,27.37
2018-07-13T09:59:54.193Z,27.30
2018-07-13T10:00:54.271Z,27.38
2018-07-13T10:01:54.072Z,27.38
2018-07-13T10:02:54.068Z,27.45
2018-07-13T10:03:54.068Z,27.44
2018-07-13T10:04:53.950Z,27.37
2018-07-13T10:06:53.949Z,27.43
2018-07-13T10:08:53.832Z,27.55
2018-07-13T10:09:53.827Z,27.48
2018-07-13T10:10:53.785Z,27.63
2018-07-13T10:11:53.715Z,27.58
2018-07-13T10:12:53.707Z,27.66
2018-07-13T10:13:53.703Z,27.73
2018-07-13T10:14:53.592Z,27.86
2018-07-13T10:15:53.587Z,27.94
2018-07-13T10:16:53.583Z,27.85
2018-07-13T10:17:53.473Z,27.95
2018-07-13T10:18:53.467Z,27.97
2018-07-13T10:19:53.468Z,28.00
2018-07-13T10:20:53.345Z,28.06
2018-07-13T10:21:53.345Z,28.06
2018-07-13T10:22:53.345Z,28.12
2018-07-13T10:23:53.344Z,28.25
2018-07-13T10:24:53.223Z,28.18
2018-07-13T10:25:53.223Z,28.20
2018-07-13T10:26:53.225Z,28.22
2018-07-13T10:27:53.110Z,28.28
2018-07-13T10:28:53.100Z,28.38
2018-07-13T10:29:53.104Z,28.38
2018-07-13T10:30:53.061Z,28.47
2018-07-13T10:31:52.983Z,28.55
2018-07-13T10:32:52.985Z,28.56
2018-07-13T10:33:52.981Z,28.59
2018-07-13T10:34:52.861Z,28.64
2018-07-13T10:35:52.859Z,28.68
2018-07-13T10:36:52.858Z,28.68
2018-07-13T10:37:52.739Z,28.80
2018-07-13T10:38:52.742Z,28.77
2018-07-13T10:39:52.739Z,28.78
2018-07-13T10:40:52.750Z,28.90
2018-07-13T10:41:52.625Z,28.87
2018-07-13T10:42:52.627Z,29.03
2018-07-13T10:43:52.620Z,29.00
2018-07-13T10:44:52.499Z,29.03
2018-07-13T10:45:52.578Z,29.10
2018-07-13T10:46:52.582Z,29.15
2018-07-13T10:47:52.383Z,29.15
2018-07-13T10:48:52.386Z,29.27
2018-07-13T10:49:52.378Z,29.30
2018-07-13T10:50:52.381Z,29.32
2018-07-13T10:51:52.260Z,29.30
2018-07-13T10:52:52.258Z,29.43
2018-07-13T10:53:52.258Z,29.40
2018-07-13T10:54:52.139Z,29.43
2018-07-13T10:55:52.138Z,29.40
2018-07-13T10:56:52.157Z,29.49
2018-07-13T10:57:52.135Z,29.52
2018-07-13T10:58:52.018Z,29.59
2018-07-13T10:59:52.019Z,29.62
2018-07-13T11:00:52.017Z,29.58
2018-07-13T11:01:51.984Z,29.62
2018-07-13T11:02:52.009Z,29.77
2018-07-13T11:03:51.987Z,29.73
2018-07-13T11:04:52.214Z,29.73
2018-07-13T11:05:51.854Z,29.80
2018-07-13T11:06:51.773Z,29.81
2018-07-13T11:07:51.774Z,29.87
2018-07-13T11:08:51.660Z,29.95
2018-07-13T11:09:51.657Z,30.01
2018-07-13T11:10:51.654Z,29.99
2018-07-13T11:11:51.536Z,30.08
2018-07-13T11:12:51.610Z,30.20
2018-07-13T11:13:51.705Z,30.20
2018-07-13T11:14:51.534Z,30.14
2018-07-13T11:15:51.411Z,30.24
2018-07-13T11:16:51.414Z,30.36
2018-07-13T11:17:51.412Z,30.36
2018-07-13T11:18:51.292Z,30.32
2018-07-13T11:19:51.291Z,30.36
2018-07-13T11:20:51.292Z,30.38
2018-07-13T11:21:51.291Z,30.36
2018-07-13T11:22:51.248Z,30.49
2018-07-13T11:23:51.171Z,30.55
2018-07-13T11:24:51.170Z,30.55
2018-07-13T11:25:51.053Z,30.69
2018-07-13T11:26:51.051Z,30.62
2018-07-13T11:27:51.051Z,30.67
2018-07-13T11:28:51.047Z,30.74
2018-07-13T11:29:51.069Z,30.74
2018-07-13T11:30:50.930Z,30.83
2018-07-13T11:31:50.928Z,30.95
2018-07-13T11:32:50.807Z,30.92
2018-07-13T11:33:50.809Z,30.99
2018-07-13T11:34:50.949Z,31.05
2018-07-13T11:35:50.807Z,31.08
2018-07-13T11:36:50.819Z,31.17
2018-07-13T11:37:50.686Z,31.13
2018-07-13T11:38:50.724Z,31.18
2018-07-13T11:39:50.575Z,31.23
2018-07-13T11:40:50.565Z,31.32
2018-07-13T11:41:50.566Z,31.35
2018-07-13T11:42:50.565Z,31.42
2018-07-13T11:43:50.450Z,31.54
2018-07-13T11:44:50.446Z,31.57
2018-07-13T11:45:50.445Z,31.74
2018-07-13T11:46:50.323Z,31.87
2018-07-13T11:47:50.326Z,31.92
2018-07-13T11:48:50.327Z,32.00
2018-07-13T11:49:50.328Z,32.01
2018-07-13T11:50:50.211Z,32.11
2018-07-13T11:51:50.202Z,32.08
2018-07-13T11:52:50.204Z,32.12
2018-07-13T11:53:50.160Z,32.09
2018-07-13T11:54:50.087Z,32.19
2018-07-13T11:55:50.083Z,32.27
2018-07-13T11:56:50.086Z,32.39
2018-07-13T11:57:49.965Z,32.44
2018-07-13T11:58:49.963Z,32.46
2018-07-13T11:59:49.965Z,32.49
2018-07-13T12:00:49.961Z,32.54
2018-07-13T12:01:49.863Z,32.67
2018-07-13T12:02:49.844Z,32.73
2018-07-13T12:03:49.847Z,32.83
2018-07-13T12:04:49.721Z,32.93
2018-07-13T12:05:49.721Z,33.15
2018-07-13T12:06:49.720Z,33.28
2018-07-13T12:07:49.807Z,33.28
2018-07-13T12:08:49.603Z,33.45
2018-07-13T12:09:49.601Z,33.50
2018-07-13T12:10:49.601Z,33.58
2018-07-13T12:11:49.556Z,33.72
2018-07-13T12:12:49.479Z,33.79
2018-07-13T12:13:49.478Z,33.98
2018-07-13T12:14:49.478Z,34.04
2018-07-13T12:15:49.357Z,34.09
2018-07-13T12:16:49.358Z,34.29
2018-07-13T12:17:49.425Z,34.38
2018-07-13T12:18:49.358Z,34.46
2018-07-13T12:19:49.243Z,34.55
2018-07-13T12:20:49.235Z,34.63
2018-07-13T12:21:49.236Z,34.78
2018-07-13T12:22:49.237Z,34.88
2018-07-13T12:23:49.126Z,34.98
2018-07-13T12:24:49.116Z,35.12
2018-07-13T12:25:49.114Z,35.15
2018-07-13T12:26:49.099Z,35.31
2018-07-13T12:27:48.994Z,35.50
2018-07-13T12:28:48.993Z,35.54
2018-07-13T12:29:48.996Z,35.50
2018-07-13T12:30:48.996Z,35.63
2018-07-13T12:31:48.875Z,35.63
2018-07-13T12:32:48.870Z,35.71
2018-07-13T12:33:48.875Z,35.71
2018-07-13T12:34:48.754Z,35.82
2018-07-13T12:35:48.752Z,35.81
2018-07-13T12:36:48.757Z,35.88
2018-07-13T12:37:48.751Z,35.93
2018-07-13T12:38:48.758Z,35.94
2018-07-13T12:39:48.647Z,36.03
2018-07-13T12:40:48.629Z,36.03
2018-07-13T12:41:48.636Z,36.14
2018-07-13T12:42:48.516Z,36.16
2018-07-13T12:43:48.511Z,36.24
2018-07-13T12:44:48.589Z,36.36
2018-07-13T12:45:48.584Z,36.47
2018-07-13T12:46:48.466Z,36.54
2018-07-13T12:47:48.390Z,36.53
2018-07-13T12:48:48.387Z,36.54
2018-07-13T12:49:48.390Z,36.54
2018-07-13T12:50:48.388Z,36.53
2018-07-13T12:51:48.267Z,36.53
2018-07-13T12:52:48.266Z,36.54
2018-07-13T12:53:48.300Z,36.60
2018-07-13T12:54:48.270Z,36.73